sensor_id;sensor_type;location;lat;lon;timestamp;P1;durP1;ratioP1;P2;durP2;ratioP2
74538;SDS011;66042;51.090;-115.340;2022-12-18T00:01:32;3.50;;;1.40;;
74538;SDS011;66042;51.090;-115.340;2022-12-18T00:04:03;1.40;;;1.30;;
74538;SDS011;66042;51.090;-115.340;2022-12-18T00:06:33;1.80;;;1.30;;
74538;SDS011;66042;51.090;-115.340;2022-12-18T00:09:03;1.30;;;1.10;;
74538;SDS011;66042;51.090;-115.340;2022-12-18T00:11:30;5.20;;;1.70;;
74538;SDS011;66042;51.090;-115.340;2022-12-18T00:13:59;1.30;;;1.20;;
74538;SDS011;66042;51.090;-115.340;2022-12-18T00:16:27;1.50;;;1.40;;
74538;SDS011;66042;51.090;-115.340;2022-12-18T00:18:57;1.90;;;1.80;;
74538;SDS011;66042;51.090;-115.340;2022-12-18T00:21:25;3.30;;;1.80;;
74538;SDS011;66042;51.090;-115.340;2022-12-18T00:23:52;1.90;;;1.30;;
74538;SDS011;66042;51.090;-115.340;2022-12-18T00:26:22;2.40;;;1.90;;
74538;SDS011;66042;51.090;-115.340;2022-12-18T00:28:51;1.70;;;1.40;;
74538;SDS011;66042;51.090;-115.340;2022-12-18T00:31:21;1.60;;;1.50;;
74538;SDS011;66042;51.090;-115.340;2022-12-18T00:33:50;2.20;;;1.70;;
74538;SDS011;66042;51.090;-115.340;2022-12-18T00:36:21;2.60;;;2.40;;
74538;SDS011;66042;51.090;-115.340;2022-12-18T00:38:50;4.20;;;3.80;;
74538;SDS011;66042;51.090;-115.340;2022-12-18T00:41:18;9.60;;;7.90;;
74538;SDS011;66042;51.090;-115.340;2022-12-18T00:44:08;8.60;;;7.30;;
74538;SDS011;66042;51.090;-115.340;2022-12-18T00:46:38;4.30;;;3.90;;
74538;SDS011;66042;51.090;-115.340;2022-12-18T00:49:05;4.60;;;3.20;;
74538;SDS011;66042;51.090;-115.340;2022-12-18T00:51:32;4.90;;;2.90;;
74538;SDS011;66042;51.090;-115.340;2022-12-18T00:53:59;2.70;;;1.60;;
74538;SDS011;66042;51.090;-115.340;2022-12-18T00:56:26;1.60;;;1.50;;
74538;SDS011;66042;51.090;-115.340;2022-12-18T00:58:53;2.30;;;1.90;;
74538;SDS011;66042;51.090;-115.340;2022-12-18T01:01:21;1.50;;;1.30;;
74538;SDS011;66042;51.090;-115.340;2022-12-18T01:03:49;1.50;;;1.30;;
74538;SDS011;66042;51.090;-115.340;2022-12-18T01:06:16;2.30;;;1.80;;
74538;SDS011;66042;51.090;-115.340;2022-12-18T01:08:44;1.30;;;1.10;;
74538;SDS011;66042;51.090;-115.340;2022-12-18T01:11:14;1.70;;;1.50;;
74538;SDS011;66042;51.090;-115.340;2022-12-18T01:13:43;1.90;;;1.50;;
74538;SDS011;66042;51.090;-115.340;2022-12-18T01:16:15;2.30;;;1.40;;
74538;SDS011;66042;51.090;-115.340;2022-12-18T01:18:44;1.70;;;1.50;;
74538;SDS011;66042;51.090;-115.340;2022-12-18T01:21:13;2.80;;;1.40;;
74538;SDS011;66042;51.090;-115.340;2022-12-18T01:23:45;1.90;;;1.80;;
74538;SDS011;66042;51.090;-115.340;2022-12-18T01:26:15;1.50;;;1.40;;
74538;SDS011;66042;51.090;-115.340;2022-12-18T01:28:42;3.90;;;1.70;;
74538;SDS011;66042;51.090;-115.340;2022-12-18T01:33:46;2.10;;;1.30;;
74538;SDS011;66042;51.090;-115.340;2022-12-18T01:36:30;2.50;;;1.60;;
74538;SDS011;66042;51.090;-115.340;2022-12-18T01:39:04;10.90;;;1.60;;
74538;SDS011;66042;51.090;-115.340;2022-12-18T01:41:33;1.90;;;1.70;;
74538;SDS011;66042;51.090;-115.340;2022-12-18T01:50:41;1.80;;;1.70;;
74538;SDS011;66042;51.090;-115.340;2022-12-18T01:53:17;1.30;;;1.20;;
74538;SDS011;66042;51.090;-115.340;2022-12-18T01:55:57;1.10;;;0.90;;
74538;SDS011;66042;51.090;-115.340;2022-12-18T01:58:35;1.70;;;1.40;;
74538;SDS011;66042;51.090;-115.340;2022-12-18T02:01:09;1.40;;;1.30;;
74538;SDS011;66042;51.090;-115.340;2022-12-18T02:03:41;1.40;;;1.30;;
74538;SDS011;66042;51.090;-115.340;2022-12-18T02:06:36;4.80;;;1.50;;
74538;SDS011;66042;51.090;-115.340;2022-12-18T02:09:22;1.30;;;1.20;;
74538;SDS011;66042;51.090;-115.340;2022-12-18T02:15:27;2.40;;;1.80;;
74538;SDS011;66042;51.090;-115.340;2022-12-18T02:18:16;1.50;;;1.40;;
74538;SDS011;66042;51.090;-115.340;2022-12-18T02:21:12;1.40;;;1.30;;
74538;SDS011;66042;51.090;-115.340;2022-12-18T02:27:01;1.50;;;1.40;;
74538;SDS011;66042;51.090;-115.340;2022-12-18T02:29:52;1.50;;;1.40;;
74538;SDS011;66042;51.090;-115.340;2022-12-18T02:32:25;1.70;;;1.60;;
74538;SDS011;66042;51.090;-115.340;2022-12-18T02:34:57;5.40;;;1.30;;
74538;SDS011;66042;51.090;-115.340;2022-12-18T02:37:27;1.80;;;1.70;;
74538;SDS011;66042;51.090;-115.340;2022-12-18T02:39:59;1.30;;;1.20;;
74538;SDS011;66042;51.090;-115.340;2022-12-18T02:42:28;1.70;;;1.60;;
74538;SDS011;66042;51.090;-115.340;2022-12-18T02:44:55;1.80;;;1.60;;
74538;SDS011;66042;51.090;-115.340;2022-12-18T02:47:24;1.60;;;1.50;;
74538;SDS011;66042;51.090;-115.340;2022-12-18T02:50:56;2.10;;;1.50;;
74538;SDS011;66042;51.090;-115.340;2022-12-18T02:53:16;1.70;;;1.50;;
74538;SDS011;66042;51.090;-115.340;2022-12-18T02:59:17;1.50;;;1.40;;
74538;SDS011;66042;51.090;-115.340;2022-12-18T03:02:11;1.10;;;0.90;;
74538;SDS011;66042;51.090;-115.340;2022-12-18T03:04:53;1.40;;;1.30;;
74538;SDS011;66042;51.090;-115.340;2022-12-18T03:10:29;1.50;;;1.40;;
74538;SDS011;66042;51.090;-115.340;2022-12-18T03:13:09;1.80;;;1.70;;
74538;SDS011;66042;51.090;-115.340;2022-12-18T03:15:52;1.40;;;1.30;;
74538;SDS011;66042;51.090;-115.340;2022-12-18T03:18:30;1.00;;;0.80;;
74538;SDS011;66042;51.090;-115.340;2022-12-18T03:21:26;1.60;;;1.50;;
74538;SDS011;66042;51.090;-115.340;2022-12-18T03:24:00;2.10;;;2.00;;
74538;SDS011;66042;51.090;-115.340;2022-12-18T03:26:32;1.50;;;1.40;;
74538;SDS011;66042;51.090;-115.340;2022-12-18T03:29:07;3.50;;;1.50;;
74538;SDS011;66042;51.090;-115.340;2022-12-18T03:31:40;1.30;;;1.20;;
74538;SDS011;66042;51.090;-115.340;2022-12-18T03:34:25;1.10;;;1.00;;
74538;SDS011;66042;51.090;-115.340;2022-12-18T03:36:57;1.80;;;1.70;;
74538;SDS011;66042;51.090;-115.340;2022-12-18T03:39:24;1.50;;;1.30;;
74538;SDS011;66042;51.090;-115.340;2022-12-18T03:41:58;1.40;;;1.30;;
74538;SDS011;66042;51.090;-115.340;2022-12-18T03:47:24;1.70;;;1.50;;
74538;SDS011;66042;51.090;-115.340;2022-12-18T03:50:15;2.20;;;2.10;;
74538;SDS011;66042;51.090;-115.340;2022-12-18T03:52:54;1.90;;;1.60;;
74538;SDS011;66042;51.090;-115.340;2022-12-18T03:55:28;1.60;;;1.50;;
74538;SDS011;66042;51.090;-115.340;2022-12-18T03:58:01;1.90;;;1.80;;
74538;SDS011;66042;51.090;-115.340;2022-12-18T04:00:31;2.00;;;1.90;;
74538;SDS011;66042;51.090;-115.340;2022-12-18T04:03:01;1.50;;;1.40;;
74538;SDS011;66042;51.090;-115.340;2022-12-18T04:05:32;2.10;;;2.00;;
74538;SDS011;66042;51.090;-115.340;2022-12-18T04:08:03;1.90;;;1.40;;
74538;SDS011;66042;51.090;-115.340;2022-12-18T04:10:31;1.40;;;1.30;;
74538;SDS011;66042;51.090;-115.340;2022-12-18T04:12:58;3.30;;;1.30;;
74538;SDS011;66042;51.090;-115.340;2022-12-18T04:15:25;1.70;;;1.60;;
74538;SDS011;66042;51.090;-115.340;2022-12-18T04:17:52;1.30;;;1.20;;
74538;SDS011;66042;51.090;-115.340;2022-12-18T04:20:19;1.40;;;1.20;;
74538;SDS011;66042;51.090;-115.340;2022-12-18T04:22:46;1.10;;;1.00;;
74538;SDS011;66042;51.090;-115.340;2022-12-18T04:25:14;1.90;;;1.70;;
74538;SDS011;66042;51.090;-115.340;2022-12-18T04:27:41;1.60;;;1.40;;
74538;SDS011;66042;51.090;-115.340;2022-12-18T04:30:08;1.70;;;1.60;;
74538;SDS011;66042;51.090;-115.340;2022-12-18T04:32:36;1.80;;;1.70;;
74538;SDS011;66042;51.090;-115.340;2022-12-18T04:35:03;2.40;;;1.30;;
74538;SDS011;66042;51.090;-115.340;2022-12-18T04:37:32;2.30;;;1.70;;
74538;SDS011;66042;51.090;-115.340;2022-12-18T04:39:59;1.50;;;1.40;;
74538;SDS011;66042;51.090;-115.340;2022-12-18T04:42:25;1.20;;;1.10;;
74538;SDS011;66042;51.090;-115.340;2022-12-18T04:44:53;1.10;;;1.00;;
74538;SDS011;66042;51.090;-115.340;2022-12-18T04:47:22;1.50;;;1.40;;
74538;SDS011;66042;51.090;-115.340;2022-12-18T04:49:48;1.30;;;1.20;;
74538;SDS011;66042;51.090;-115.340;2022-12-18T04:52:15;1.60;;;1.50;;
74538;SDS011;66042;51.090;-115.340;2022-12-18T04:54:42;2.40;;;2.20;;
74538;SDS011;66042;51.090;-115.340;2022-12-18T04:57:09;2.10;;;2.00;;
74538;SDS011;66042;51.090;-115.340;2022-12-18T04:59:36;1.40;;;1.20;;
74538;SDS011;66042;51.090;-115.340;2022-12-18T05:02:03;1.90;;;1.70;;
74538;SDS011;66042;51.090;-115.340;2022-12-18T05:04:32;1.90;;;1.80;;
74538;SDS011;66042;51.090;-115.340;2022-12-18T05:06:59;1.50;;;1.40;;
74538;SDS011;66042;51.090;-115.340;2022-12-18T05:09:26;1.80;;;1.50;;
74538;SDS011;66042;51.090;-115.340;2022-12-18T05:11:53;1.40;;;1.30;;
74538;SDS011;66042;51.090;-115.340;2022-12-18T05:14:20;3.40;;;1.60;;
74538;SDS011;66042;51.090;-115.340;2022-12-18T05:16:47;1.60;;;1.50;;
74538;SDS011;66042;51.090;-115.340;2022-12-18T05:19:15;1.80;;;1.70;;
74538;SDS011;66042;51.090;-115.340;2022-12-18T05:21:41;2.40;;;1.70;;
74538;SDS011;66042;51.090;-115.340;2022-12-18T05:24:08;2.40;;;2.10;;
74538;SDS011;66042;51.090;-115.340;2022-12-18T05:26:35;1.70;;;1.60;;
74538;SDS011;66042;51.090;-115.340;2022-12-18T05:29:02;2.00;;;1.90;;
74538;SDS011;66042;51.090;-115.340;2022-12-18T05:31:28;1.50;;;1.40;;
74538;SDS011;66042;51.090;-115.340;2022-12-18T05:33:55;1.50;;;1.40;;
74538;SDS011;66042;51.090;-115.340;2022-12-18T05:36:22;1.90;;;1.80;;
74538;SDS011;66042;51.090;-115.340;2022-12-18T05:38:50;3.30;;;1.60;;
74538;SDS011;66042;51.090;-115.340;2022-12-18T05:41:17;1.30;;;1.10;;
74538;SDS011;66042;51.090;-115.340;2022-12-18T05:43:44;1.40;;;1.30;;
74538;SDS011;66042;51.090;-115.340;2022-12-18T05:46:14;1.30;;;1.20;;
74538;SDS011;66042;51.090;-115.340;2022-12-18T05:48:43;1.00;;;0.90;;
74538;SDS011;66042;51.090;-115.340;2022-12-18T05:51:15;1.50;;;1.40;;
74538;SDS011;66042;51.090;-115.340;2022-12-18T05:53:43;1.50;;;1.40;;
74538;SDS011;66042;51.090;-115.340;2022-12-18T05:56:19;1.20;;;1.10;;
74538;SDS011;66042;51.090;-115.340;2022-12-18T05:58:51;1.30;;;1.10;;
74538;SDS011;66042;51.090;-115.340;2022-12-18T06:01:22;1.50;;;1.40;;
74538;SDS011;66042;51.090;-115.340;2022-12-18T06:03:52;1.70;;;1.40;;
74538;SDS011;66042;51.090;-115.340;2022-12-18T06:06:20;1.80;;;1.70;;
74538;SDS011;66042;51.090;-115.340;2022-12-18T06:08:50;1.80;;;1.60;;
74538;SDS011;66042;51.090;-115.340;2022-12-18T06:11:20;1.60;;;1.50;;
74538;SDS011;66042;51.090;-115.340;2022-12-18T06:13:53;1.90;;;1.30;;
74538;SDS011;66042;51.090;-115.340;2022-12-18T06:16:21;1.60;;;1.50;;
74538;SDS011;66042;51.090;-115.340;2022-12-18T06:18:48;1.80;;;1.60;;
74538;SDS011;66042;51.090;-115.340;2022-12-18T06:21:18;1.60;;;1.50;;
74538;SDS011;66042;51.090;-115.340;2022-12-18T06:23:45;1.10;;;0.90;;
74538;SDS011;66042;51.090;-115.340;2022-12-18T06:26:13;1.30;;;1.20;;
74538;SDS011;66042;51.090;-115.340;2022-12-18T06:28:41;1.20;;;1.10;;
74538;SDS011;66042;51.090;-115.340;2022-12-18T06:31:09;2.00;;;1.90;;
74538;SDS011;66042;51.090;-115.340;2022-12-18T06:33:36;2.10;;;1.70;;
74538;SDS011;66042;51.090;-115.340;2022-12-18T06:36:09;1.30;;;1.20;;
74538;SDS011;66042;51.090;-115.340;2022-12-18T06:38:40;1.90;;;1.50;;
74538;SDS011;66042;51.090;-115.340;2022-12-18T06:41:14;1.50;;;1.20;;
74538;SDS011;66042;51.090;-115.340;2022-12-18T06:43:43;1.40;;;1.30;;
74538;SDS011;66042;51.090;-115.340;2022-12-18T06:46:11;1.90;;;1.80;;
74538;SDS011;66042;51.090;-115.340;2022-12-18T06:48:39;1.40;;;1.30;;
74538;SDS011;66042;51.090;-115.340;2022-12-18T06:51:06;1.40;;;1.30;;
74538;SDS011;66042;51.090;-115.340;2022-12-18T06:53:33;1.40;;;1.30;;
74538;SDS011;66042;51.090;-115.340;2022-12-18T06:56:02;1.70;;;1.60;;
74538;SDS011;66042;51.090;-115.340;2022-12-18T06:58:30;2.50;;;2.30;;
74538;SDS011;66042;51.090;-115.340;2022-12-18T07:01:02;1.20;;;1.00;;
74538;SDS011;66042;51.090;-115.340;2022-12-18T07:03:31;1.30;;;1.20;;
74538;SDS011;66042;51.090;-115.340;2022-12-18T07:05:58;1.60;;;1.50;;
74538;SDS011;66042;51.090;-115.340;2022-12-18T07:08:25;1.80;;;1.70;;
74538;SDS011;66042;51.090;-115.340;2022-12-18T07:10:52;1.70;;;1.60;;
74538;SDS011;66042;51.090;-115.340;2022-12-18T07:13:20;2.00;;;1.80;;
74538;SDS011;66042;51.090;-115.340;2022-12-18T07:15:46;1.40;;;1.30;;
74538;SDS011;66042;51.090;-115.340;2022-12-18T07:18:14;1.30;;;1.20;;
74538;SDS011;66042;51.090;-115.340;2022-12-18T07:20:41;1.60;;;1.50;;
74538;SDS011;66042;51.090;-115.340;2022-12-18T07:23:08;2.00;;;1.80;;
74538;SDS011;66042;51.090;-115.340;2022-12-18T07:25:35;3.80;;;1.40;;
74538;SDS011;66042;51.090;-115.340;2022-12-18T07:28:03;1.10;;;1.00;;
74538;SDS011;66042;51.090;-115.340;2022-12-18T07:30:30;1.70;;;1.60;;
74538;SDS011;66042;51.090;-115.340;2022-12-18T07:32:58;2.90;;;1.50;;
74538;SDS011;66042;51.090;-115.340;2022-12-18T07:35:25;1.70;;;1.60;;
74538;SDS011;66042;51.090;-115.340;2022-12-18T07:37:52;1.00;;;0.90;;
74538;SDS011;66042;51.090;-115.340;2022-12-18T07:40:19;2.40;;;1.50;;
74538;SDS011;66042;51.090;-115.340;2022-12-18T07:42:46;1.40;;;1.30;;
74538;SDS011;66042;51.090;-115.340;2022-12-18T07:45:13;3.70;;;2.50;;
74538;SDS011;66042;51.090;-115.340;2022-12-18T07:47:40;1.50;;;1.40;;
74538;SDS011;66042;51.090;-115.340;2022-12-18T07:50:07;1.80;;;1.60;;
74538;SDS011;66042;51.090;-115.340;2022-12-18T07:52:34;5.20;;;1.20;;
74538;SDS011;66042;51.090;-115.340;2022-12-18T07:55:01;1.70;;;1.60;;
74538;SDS011;66042;51.090;-115.340;2022-12-18T07:57:28;2.00;;;1.90;;
74538;SDS011;66042;51.090;-115.340;2022-12-18T07:59:55;1.80;;;1.70;;
74538;SDS011;66042;51.090;-115.340;2022-12-18T08:02:26;1.70;;;1.30;;
74538;SDS011;66042;51.090;-115.340;2022-12-18T08:04:56;1.50;;;1.40;;
74538;SDS011;66042;51.090;-115.340;2022-12-18T08:07:23;1.40;;;1.30;;
74538;SDS011;66042;51.090;-115.340;2022-12-18T08:09:50;2.10;;;2.00;;
74538;SDS011;66042;51.090;-115.340;2022-12-18T08:12:18;1.30;;;1.20;;
74538;SDS011;66042;51.090;-115.340;2022-12-18T08:14:45;1.70;;;1.60;;
74538;SDS011;66042;51.090;-115.340;2022-12-18T08:17:12;1.50;;;1.40;;
74538;SDS011;66042;51.090;-115.340;2022-12-18T08:19:39;1.60;;;1.50;;
74538;SDS011;66042;51.090;-115.340;2022-12-18T08:22:06;4.30;;;2.00;;
74538;SDS011;66042;51.090;-115.340;2022-12-18T08:24:33;1.90;;;1.80;;
74538;SDS011;66042;51.090;-115.340;2022-12-18T08:27:00;1.40;;;1.30;;
74538;SDS011;66042;51.090;-115.340;2022-12-18T08:29:27;1.50;;;1.40;;
74538;SDS011;66042;51.090;-115.340;2022-12-18T08:31:54;2.10;;;1.90;;
74538;SDS011;66042;51.090;-115.340;2022-12-18T08:34:21;1.40;;;1.30;;
74538;SDS011;66042;51.090;-115.340;2022-12-18T08:36:48;1.80;;;1.70;;
74538;SDS011;66042;51.090;-115.340;2022-12-18T08:39:15;2.50;;;1.70;;
74538;SDS011;66042;51.090;-115.340;2022-12-18T08:41:42;1.40;;;1.30;;
74538;SDS011;66042;51.090;-115.340;2022-12-18T08:44:29;1.10;;;1.00;;
74538;SDS011;66042;51.090;-115.340;2022-12-18T08:47:06;2.40;;;2.20;;
74538;SDS011;66042;51.090;-115.340;2022-12-18T08:49:34;1.40;;;1.30;;
74538;SDS011;66042;51.090;-115.340;2022-12-18T08:52:01;1.80;;;1.70;;
74538;SDS011;66042;51.090;-115.340;2022-12-18T08:54:29;1.60;;;1.50;;
74538;SDS011;66042;51.090;-115.340;2022-12-18T08:56:56;1.20;;;1.10;;
74538;SDS011;66042;51.090;-115.340;2022-12-18T08:59:23;2.10;;;1.90;;
74538;SDS011;66042;51.090;-115.340;2022-12-18T09:01:50;1.50;;;1.40;;
74538;SDS011;66042;51.090;-115.340;2022-12-18T09:04:21;1.40;;;1.30;;
74538;SDS011;66042;51.090;-115.340;2022-12-18T09:06:49;1.20;;;1.10;;
74538;SDS011;66042;51.090;-115.340;2022-12-18T09:09:16;1.70;;;1.30;;
74538;SDS011;66042;51.090;-115.340;2022-12-18T09:11:43;1.30;;;1.20;;
74538;SDS011;66042;51.090;-115.340;2022-12-18T09:14:10;1.70;;;1.60;;
74538;SDS011;66042;51.090;-115.340;2022-12-18T09:16:37;1.50;;;1.40;;
74538;SDS011;66042;51.090;-115.340;2022-12-18T09:19:04;2.90;;;2.00;;
74538;SDS011;66042;51.090;-115.340;2022-12-18T09:21:33;1.90;;;1.70;;
74538;SDS011;66042;51.090;-115.340;2022-12-18T09:24:01;1.40;;;1.30;;
74538;SDS011;66042;51.090;-115.340;2022-12-18T09:26:29;1.70;;;1.60;;
74538;SDS011;66042;51.090;-115.340;2022-12-18T09:28:56;1.60;;;1.50;;
74538;SDS011;66042;51.090;-115.340;2022-12-18T09:31:24;1.80;;;1.40;;
74538;SDS011;66042;51.090;-115.340;2022-12-18T09:33:51;1.50;;;1.20;;
74538;SDS011;66042;51.090;-115.340;2022-12-18T09:36:19;1.00;;;0.90;;
74538;SDS011;66042;51.090;-115.340;2022-12-18T09:38:46;2.00;;;1.80;;
74538;SDS011;66042;51.090;-115.340;2022-12-18T09:41:36;1.60;;;1.50;;
74538;SDS011;66042;51.090;-115.340;2022-12-18T09:49:45;2.00;;;1.90;;
74538;SDS011;66042;51.090;-115.340;2022-12-18T09:52:31;2.40;;;2.10;;
74538;SDS011;66042;51.090;-115.340;2022-12-18T09:55:21;3.10;;;2.00;;
74538;SDS011;66042;51.090;-115.340;2022-12-18T09:58:30;1.40;;;1.30;;
74538;SDS011;66042;51.090;-115.340;2022-12-18T10:01:06;1.40;;;1.30;;
74538;SDS011;66042;51.090;-115.340;2022-12-18T10:03:38;1.90;;;1.70;;
74538;SDS011;66042;51.090;-115.340;2022-12-18T10:15:30;2.40;;;2.20;;
74538;SDS011;66042;51.090;-115.340;2022-12-18T10:18:14;2.10;;;1.90;;
74538;SDS011;66042;51.090;-115.340;2022-12-18T10:21:31;1.30;;;1.20;;
74538;SDS011;66042;51.090;-115.340;2022-12-18T10:24:53;1.50;;;1.40;;
74538;SDS011;66042;51.090;-115.340;2022-12-18T10:27:31;1.20;;;1.10;;
74538;SDS011;66042;51.090;-115.340;2022-12-18T10:29:58;2.20;;;2.00;;
74538;SDS011;66042;51.090;-115.340;2022-12-18T10:32:29;1.70;;;1.60;;
74538;SDS011;66042;51.090;-115.340;2022-12-18T10:34:57;1.90;;;1.70;;
74538;SDS011;66042;51.090;-115.340;2022-12-18T10:37:27;1.60;;;1.50;;
74538;SDS011;66042;51.090;-115.340;2022-12-18T10:40:15;4.30;;;1.80;;
74538;SDS011;66042;51.090;-115.340;2022-12-18T10:42:42;1.20;;;1.10;;
74538;SDS011;66042;51.090;-115.340;2022-12-18T10:45:15;1.60;;;1.50;;
74538;SDS011;66042;51.090;-115.340;2022-12-18T10:47:48;1.90;;;1.80;;
74538;SDS011;66042;51.090;-115.340;2022-12-18T10:53:03;4.90;;;1.30;;
74538;SDS011;66042;51.090;-115.340;2022-12-18T10:55:39;1.90;;;1.80;;
74538;SDS011;66042;51.090;-115.340;2022-12-18T10:58:37;1.80;;;1.70;;
74538;SDS011;66042;51.090;-115.340;2022-12-18T11:01:08;1.10;;;1.00;;
74538;SDS011;66042;51.090;-115.340;2022-12-18T11:03:47;1.60;;;1.40;;
74538;SDS011;66042;51.090;-115.340;2022-12-18T11:06:27;1.50;;;1.40;;
74538;SDS011;66042;51.090;-115.340;2022-12-18T11:11:50;2.20;;;2.00;;
74538;SDS011;66042;51.090;-115.340;2022-12-18T11:14:43;1.70;;;1.60;;
74538;SDS011;66042;51.090;-115.340;2022-12-18T11:17:29;1.60;;;1.50;;
74538;SDS011;66042;51.090;-115.340;2022-12-18T11:20:19;1.60;;;1.50;;
74538;SDS011;66042;51.090;-115.340;2022-12-18T11:23:05;1.40;;;1.30;;
74538;SDS011;66042;51.090;-115.340;2022-12-18T11:25:39;2.20;;;2.00;;
74538;SDS011;66042;51.090;-115.340;2022-12-18T11:28:29;1.60;;;1.50;;
74538;SDS011;66042;51.090;-115.340;2022-12-18T11:31:27;1.30;;;1.20;;
74538;SDS011;66042;51.090;-115.340;2022-12-18T11:36:46;1.60;;;1.50;;
74538;SDS011;66042;51.090;-115.340;2022-12-18T11:53:22;2.10;;;2.00;;
74538;SDS011;66042;51.090;-115.340;2022-12-18T11:56:11;1.80;;;1.70;;
74538;SDS011;66042;51.090;-115.340;2022-12-18T12:13:37;2.20;;;1.90;;
74538;SDS011;66042;51.090;-115.340;2022-12-18T12:16:22;2.20;;;1.80;;
74538;SDS011;66042;51.090;-115.340;2022-12-18T12:25:27;1.20;;;1.10;;
74538;SDS011;66042;51.090;-115.340;2022-12-18T12:37:09;2.20;;;2.00;;
74538;SDS011;66042;51.090;-115.340;2022-12-18T12:39:47;1.60;;;1.50;;
74538;SDS011;66042;51.090;-115.340;2022-12-18T12:42:31;1.70;;;1.60;;
74538;SDS011;66042;51.090;-115.340;2022-12-18T12:45:33;3.30;;;2.70;;
74538;SDS011;66042;51.090;-115.340;2022-12-18T12:51:24;1.60;;;1.50;;
74538;SDS011;66042;51.090;-115.340;2022-12-18T12:53:57;1.30;;;1.20;;
74538;SDS011;66042;51.090;-115.340;2022-12-18T12:56:52;1.40;;;1.30;;
74538;SDS011;66042;51.090;-115.340;2022-12-18T12:59:37;1.30;;;1.10;;
74538;SDS011;66042;51.090;-115.340;2022-12-18T13:08:31;1.80;;;1.70;;
74538;SDS011;66042;51.090;-115.340;2022-12-18T13:11:41;1.40;;;1.30;;
74538;SDS011;66042;51.090;-115.340;2022-12-18T13:14:32;1.50;;;1.40;;
74538;SDS011;66042;51.090;-115.340;2022-12-18T13:20:15;1.80;;;1.60;;
74538;SDS011;66042;51.090;-115.340;2022-12-18T13:22:43;1.60;;;1.50;;
74538;SDS011;66042;51.090;-115.340;2022-12-18T13:25:33;1.70;;;1.50;;
74538;SDS011;66042;51.090;-115.340;2022-12-18T13:28:07;1.90;;;1.80;;
74538;SDS011;66042;51.090;-115.340;2022-12-18T13:30:55;1.20;;;1.10;;
74538;SDS011;66042;51.090;-115.340;2022-12-18T13:36:09;1.30;;;1.20;;
74538;SDS011;66042;51.090;-115.340;2022-12-18T13:39:20;1.00;;;0.90;;
74538;SDS011;66042;51.090;-115.340;2022-12-18T13:42:31;1.60;;;1.50;;
74538;SDS011;66042;51.090;-115.340;2022-12-18T13:45:01;1.80;;;1.70;;
74538;SDS011;66042;51.090;-115.340;2022-12-18T13:47:33;1.70;;;1.60;;
74538;SDS011;66042;51.090;-115.340;2022-12-18T13:50:27;1.30;;;1.10;;
74538;SDS011;66042;51.090;-115.340;2022-12-18T13:52:54;1.40;;;1.30;;
74538;SDS011;66042;51.090;-115.340;2022-12-18T13:55:22;2.00;;;1.80;;
74538;SDS011;66042;51.090;-115.340;2022-12-18T13:57:50;1.70;;;1.60;;
74538;SDS011;66042;51.090;-115.340;2022-12-18T14:00:31;2.30;;;2.10;;
74538;SDS011;66042;51.090;-115.340;2022-12-18T14:02:59;1.80;;;1.70;;
74538;SDS011;66042;51.090;-115.340;2022-12-18T14:08:03;1.60;;;1.50;;
74538;SDS011;66042;51.090;-115.340;2022-12-18T14:10:35;1.90;;;1.80;;
74538;SDS011;66042;51.090;-115.340;2022-12-18T14:13:10;1.80;;;1.70;;
74538;SDS011;66042;51.090;-115.340;2022-12-18T14:15:47;3.00;;;1.50;;
74538;SDS011;66042;51.090;-115.340;2022-12-18T14:18:31;1.30;;;1.20;;
74538;SDS011;66042;51.090;-115.340;2022-12-18T14:21:27;1.50;;;1.40;;
74538;SDS011;66042;51.090;-115.340;2022-12-18T14:24:19;2.20;;;2.10;;
74538;SDS011;66042;51.090;-115.340;2022-12-18T14:26:49;2.00;;;1.80;;
74538;SDS011;66042;51.090;-115.340;2022-12-18T14:29:24;1.80;;;1.70;;
74538;SDS011;66042;51.090;-115.340;2022-12-18T14:32:15;2.40;;;2.00;;
74538;SDS011;66042;51.090;-115.340;2022-12-18T14:34:45;1.90;;;1.80;;
74538;SDS011;66042;51.090;-115.340;2022-12-18T14:37:24;2.00;;;1.90;;
74538;SDS011;66042;51.090;-115.340;2022-12-18T14:40:01;3.40;;;1.60;;
74538;SDS011;66042;51.090;-115.340;2022-12-18T14:42:30;3.00;;;1.90;;
74538;SDS011;66042;51.090;-115.340;2022-12-18T14:45:35;1.80;;;1.70;;
74538;SDS011;66042;51.090;-115.340;2022-12-18T14:48:06;1.40;;;1.30;;
74538;SDS011;66042;51.090;-115.340;2022-12-18T14:51:01;2.70;;;2.20;;
74538;SDS011;66042;51.090;-115.340;2022-12-18T14:54:02;2.00;;;1.80;;
74538;SDS011;66042;51.090;-115.340;2022-12-18T14:56:46;1.40;;;1.30;;
74538;SDS011;66042;51.090;-115.340;2022-12-18T14:59:23;1.80;;;1.70;;
74538;SDS011;66042;51.090;-115.340;2022-12-18T15:04:41;2.20;;;2.10;;
74538;SDS011;66042;51.090;-115.340;2022-12-18T15:07:20;1.90;;;1.80;;
74538;SDS011;66042;51.090;-115.340;2022-12-18T15:10:20;1.20;;;1.10;;
74538;SDS011;66042;51.090;-115.340;2022-12-18T15:20:56;2.20;;;2.00;;
74538;SDS011;66042;51.090;-115.340;2022-12-18T15:23:47;2.10;;;2.00;;
74538;SDS011;66042;51.090;-115.340;2022-12-18T15:26:17;1.70;;;1.60;;
74538;SDS011;66042;51.090;-115.340;2022-12-18T15:28:48;1.70;;;1.60;;
74538;SDS011;66042;51.090;-115.340;2022-12-18T15:36:47;1.50;;;1.40;;
74538;SDS011;66042;51.090;-115.340;2022-12-18T15:39:14;2.50;;;2.30;;
74538;SDS011;66042;51.090;-115.340;2022-12-18T15:41:41;2.50;;;2.30;;
74538;SDS011;66042;51.090;-115.340;2022-12-18T15:44:28;1.90;;;1.50;;
74538;SDS011;66042;51.090;-115.340;2022-12-18T15:46:55;1.40;;;1.30;;
74538;SDS011;66042;51.090;-115.340;2022-12-18T15:49:22;1.30;;;1.20;;
74538;SDS011;66042;51.090;-115.340;2022-12-18T15:51:54;1.70;;;1.60;;
74538;SDS011;66042;51.090;-115.340;2022-12-18T15:54:24;1.90;;;1.80;;
74538;SDS011;66042;51.090;-115.340;2022-12-18T15:57:11;1.70;;;1.60;;
74538;SDS011;66042;51.090;-115.340;2022-12-18T15:59:56;2.50;;;2.30;;
74538;SDS011;66042;51.090;-115.340;2022-12-18T16:02:24;1.40;;;1.30;;
74538;SDS011;66042;51.090;-115.340;2022-12-18T16:04:51;1.80;;;1.70;;
74538;SDS011;66042;51.090;-115.340;2022-12-18T16:07:20;1.40;;;1.30;;
74538;SDS011;66042;51.090;-115.340;2022-12-18T16:09:47;2.00;;;1.90;;
74538;SDS011;66042;51.090;-115.340;2022-12-18T16:12:20;1.90;;;1.80;;
74538;SDS011;66042;51.090;-115.340;2022-12-18T16:14:49;2.40;;;2.20;;
74538;SDS011;66042;51.090;-115.340;2022-12-18T16:17:17;2.10;;;2.00;;
74538;SDS011;66042;51.090;-115.340;2022-12-18T16:19:44;2.10;;;1.50;;
74538;SDS011;66042;51.090;-115.340;2022-12-18T16:22:28;2.50;;;1.40;;
74538;SDS011;66042;51.090;-115.340;2022-12-18T16:24:57;1.60;;;1.50;;
74538;SDS011;66042;51.090;-115.340;2022-12-18T16:27:25;1.30;;;1.20;;
74538;SDS011;66042;51.090;-115.340;2022-12-18T16:29:52;2.90;;;1.70;;
74538;SDS011;66042;51.090;-115.340;2022-12-18T16:32:20;2.10;;;2.00;;
74538;SDS011;66042;51.090;-115.340;2022-12-18T16:34:48;2.40;;;2.20;;
74538;SDS011;66042;51.090;-115.340;2022-12-18T16:37:15;1.50;;;1.40;;
74538;SDS011;66042;51.090;-115.340;2022-12-18T16:39:43;1.30;;;1.20;;
74538;SDS011;66042;51.090;-115.340;2022-12-18T16:42:16;1.80;;;1.70;;
74538;SDS011;66042;51.090;-115.340;2022-12-18T16:44:46;3.00;;;2.10;;
74538;SDS011;66042;51.090;-115.340;2022-12-18T16:47:15;2.00;;;1.80;;
74538;SDS011;66042;51.090;-115.340;2022-12-18T16:49:43;1.80;;;1.70;;
74538;SDS011;66042;51.090;-115.340;2022-12-18T16:52:11;1.50;;;1.40;;